sensor_id;sensor_type;location;lat;lon;timestamp;P1;durP1;ratioP1;P2;durP2;ratioP2
3683;SDS011;1858;48.716;9.648;2022-12-22T00:01:46;7.23;;;4.23;;
3683;SDS011;1858;48.716;9.648;2022-12-22T00:04:34;6.77;;;3.83;;
3683;SDS011;1858;48.716;9.648;2022-12-22T00:07:21;8.03;;;4.87;;
3683;SDS011;1858;48.716;9.648;2022-12-22T00:10:07;5.70;;;3.33;;
3683;SDS011;1858;48.716;9.648;2022-12-22T00:12:54;7.97;;;4.20;;
3683;SDS011;1858;48.716;9.648;2022-12-22T00:15:40;3.40;;;1.80;;
3683;SDS011;1858;48.716;9.648;2022-12-22T00:18:26;2.77;;;1.50;;
3683;SDS011;1858;48.716;9.648;2022-12-22T00:21:13;2.27;;;1.47;;
3683;SDS011;1858;48.716;9.648;2022-12-22T00:23:59;3.90;;;0.90;;
3683;SDS011;1858;48.716;9.648;2022-12-22T00:26:45;2.73;;;1.30;;
3683;SDS011;1858;48.716;9.648;2022-12-22T00:29:35;4.43;;;2.20;;
3683;SDS011;1858;48.716;9.648;2022-12-22T00:32:24;12.90;;;4.80;;
3683;SDS011;1858;48.716;9.648;2022-12-22T00:35:13;5.03;;;2.87;;
3683;SDS011;1858;48.716;9.648;2022-12-22T00:37:59;3.07;;;1.73;;
3683;SDS011;1858;48.716;9.648;2022-12-22T00:40:46;4.17;;;2.40;;
3683;SDS011;1858;48.716;9.648;2022-12-22T00:43:32;1.53;;;0.70;;
3683;SDS011;1858;48.716;9.648;2022-12-22T00:46:18;2.00;;;1.00;;
3683;SDS011;1858;48.716;9.648;2022-12-22T00:49:04;1.33;;;0.80;;
3683;SDS011;1858;48.716;9.648;2022-12-22T00:51:52;1.60;;;0.80;;
3683;SDS011;1858;48.716;9.648;2022-12-22T00:54:38;3.07;;;1.27;;
3683;SDS011;1858;48.716;9.648;2022-12-22T00:57:25;1.57;;;0.70;;
3683;SDS011;1858;48.716;9.648;2022-12-22T01:00:15;2.63;;;1.10;;
3683;SDS011;1858;48.716;9.648;2022-12-22T01:03:03;1.97;;;0.80;;
3683;SDS011;1858;48.716;9.648;2022-12-22T01:05:49;1.53;;;0.83;;
3683;SDS011;1858;48.716;9.648;2022-12-22T01:08:35;2.43;;;1.10;;
3683;SDS011;1858;48.716;9.648;2022-12-22T01:11:21;1.90;;;0.80;;
3683;SDS011;1858;48.716;9.648;2022-12-22T01:14:09;1.83;;;1.03;;
3683;SDS011;1858;48.716;9.648;2022-12-22T01:16:59;1.77;;;0.67;;
3683;SDS011;1858;48.716;9.648;2022-12-22T01:19:45;2.37;;;1.00;;
3683;SDS011;1858;48.716;9.648;2022-12-22T01:22:32;2.77;;;0.93;;
3683;SDS011;1858;48.716;9.648;2022-12-22T01:25:18;2.10;;;1.00;;
3683;SDS011;1858;48.716;9.648;2022-12-22T01:28:04;2.10;;;1.30;;
3683;SDS011;1858;48.716;9.648;2022-12-22T01:30:50;2.43;;;1.10;;
3683;SDS011;1858;48.716;9.648;2022-12-22T01:33:37;1.90;;;0.90;;
3683;SDS011;1858;48.716;9.648;2022-12-22T01:36:22;2.20;;;1.63;;
3683;SDS011;1858;48.716;9.648;2022-12-22T01:39:08;3.30;;;1.13;;
3683;SDS011;1858;48.716;9.648;2022-12-22T01:41:54;1.83;;;0.77;;
3683;SDS011;1858;48.716;9.648;2022-12-22T01:44:41;3.23;;;1.97;;
3683;SDS011;1858;48.716;9.648;2022-12-22T01:50:17;2.10;;;0.90;;
3683;SDS011;1858;48.716;9.648;2022-12-22T01:53:13;2.27;;;1.47;;
3683;SDS011;1858;48.716;9.648;2022-12-22T01:56:01;2.50;;;1.20;;
3683;SDS011;1858;48.716;9.648;2022-12-22T01:58:50;2.53;;;1.00;;
3683;SDS011;1858;48.716;9.648;2022-12-22T02:01:36;4.10;;;1.70;;
3683;SDS011;1858;48.716;9.648;2022-12-22T02:04:25;2.43;;;1.30;;
3683;SDS011;1858;48.716;9.648;2022-12-22T02:13:45;3.50;;;1.67;;
3683;SDS011;1858;48.716;9.648;2022-12-22T02:19:58;2.00;;;1.10;;
3683;SDS011;1858;48.716;9.648;2022-12-22T02:22:58;2.07;;;1.00;;
3683;SDS011;1858;48.716;9.648;2022-12-22T02:26:21;4.63;;;0.77;;
3683;SDS011;1858;48.716;9.648;2022-12-22T02:29:26;1.90;;;0.80;;
3683;SDS011;1858;48.716;9.648;2022-12-22T02:32:24;2.50;;;0.83;;
3683;SDS011;1858;48.716;9.648;2022-12-22T02:35:12;1.47;;;0.80;;
3683;SDS011;1858;48.716;9.648;2022-12-22T02:38:19;1.30;;;0.57;;
3683;SDS011;1858;48.716;9.648;2022-12-22T02:44:41;3.30;;;1.00;;
3683;SDS011;1858;48.716;9.648;2022-12-22T02:47:31;3.60;;;0.80;;
3683;SDS011;1858;48.716;9.648;2022-12-22T02:50:28;3.07;;;1.30;;
3683;SDS011;1858;48.716;9.648;2022-12-22T02:53:28;1.77;;;0.83;;
3683;SDS011;1858;48.716;9.648;2022-12-22T02:56:15;1.83;;;1.00;;
3683;SDS011;1858;48.716;9.648;2022-12-22T02:59:02;1.93;;;0.90;;
3683;SDS011;1858;48.716;9.648;2022-12-22T03:01:48;3.00;;;1.60;;
3683;SDS011;1858;48.716;9.648;2022-12-22T03:04:34;3.97;;;1.13;;
3683;SDS011;1858;48.716;9.648;2022-12-22T03:07:21;1.30;;;0.60;;
3683;SDS011;1858;48.716;9.648;2022-12-22T03:10:07;1.20;;;0.50;;
3683;SDS011;1858;48.716;9.648;2022-12-22T03:12:57;1.20;;;0.50;;
3683;SDS011;1858;48.716;9.648;2022-12-22T03:15:44;2.70;;;1.03;;
3683;SDS011;1858;48.716;9.648;2022-12-22T03:18:30;1.00;;;0.40;;
3683;SDS011;1858;48.716;9.648;2022-12-22T03:21:16;1.20;;;0.50;;
3683;SDS011;1858;48.716;9.648;2022-12-22T03:24:03;1.20;;;0.40;;
3683;SDS011;1858;48.716;9.648;2022-12-22T03:26:49;1.30;;;0.60;;
3683;SDS011;1858;48.716;9.648;2022-12-22T03:29:18;1.60;;;0.53;;
3683;SDS011;1858;48.716;9.648;2022-12-22T03:31:46;1.20;;;0.50;;
3683;SDS011;1858;48.716;9.648;2022-12-22T03:34:14;1.40;;;0.63;;
3683;SDS011;1858;48.716;9.648;2022-12-22T03:36:43;1.30;;;0.50;;
3683;SDS011;1858;48.716;9.648;2022-12-22T03:39:11;1.17;;;0.50;;
3683;SDS011;1858;48.716;9.648;2022-12-22T03:41:39;1.70;;;0.70;;
3683;SDS011;1858;48.716;9.648;2022-12-22T03:44:25;1.43;;;0.53;;
3683;SDS011;1858;48.716;9.648;2022-12-22T03:47:12;1.57;;;0.53;;
3683;SDS011;1858;48.716;9.648;2022-12-22T03:49:40;1.37;;;0.70;;
3683;SDS011;1858;48.716;9.648;2022-12-22T03:52:08;1.60;;;1.00;;
3683;SDS011;1858;48.716;9.648;2022-12-22T03:54:37;1.93;;;0.80;;
3683;SDS011;1858;48.716;9.648;2022-12-22T03:57:05;1.40;;;0.60;;
3683;SDS011;1858;48.716;9.648;2022-12-22T03:59:33;1.57;;;0.60;;
3683;SDS011;1858;48.716;9.648;2022-12-22T04:02:02;2.73;;;0.80;;
3683;SDS011;1858;48.716;9.648;2022-12-22T04:04:30;9.03;;;0.50;;
3683;SDS011;1858;48.716;9.648;2022-12-22T04:06:59;1.30;;;0.67;;
3683;SDS011;1858;48.716;9.648;2022-12-22T04:09:27;1.10;;;0.50;;
3683;SDS011;1858;48.716;9.648;2022-12-22T04:11:55;1.20;;;0.60;;
3683;SDS011;1858;48.716;9.648;2022-12-22T04:14:41;1.40;;;0.50;;
3683;SDS011;1858;48.716;9.648;2022-12-22T04:19:57;1.53;;;0.60;;
3683;SDS011;1858;48.716;9.648;2022-12-22T04:22:26;1.93;;;0.70;;
3683;SDS011;1858;48.716;9.648;2022-12-22T04:24:54;1.80;;;0.60;;
3683;SDS011;1858;48.716;9.648;2022-12-22T04:27:22;2.80;;;0.60;;
3683;SDS011;1858;48.716;9.648;2022-12-22T04:29:51;1.73;;;0.50;;
3683;SDS011;1858;48.716;9.648;2022-12-22T04:32:19;2.10;;;0.60;;
3683;SDS011;1858;48.716;9.648;2022-12-22T04:34:48;1.30;;;0.60;;
3683;SDS011;1858;48.716;9.648;2022-12-22T04:37:16;1.40;;;0.50;;
3683;SDS011;1858;48.716;9.648;2022-12-22T04:39:44;1.73;;;0.70;;
3683;SDS011;1858;48.716;9.648;2022-12-22T04:42:13;1.30;;;0.50;;
3683;SDS011;1858;48.716;9.648;2022-12-22T04:44:41;1.30;;;0.50;;
3683;SDS011;1858;48.716;9.648;2022-12-22T04:47:09;2.07;;;0.90;;
3683;SDS011;1858;48.716;9.648;2022-12-22T04:49:38;1.30;;;0.40;;
3683;SDS011;1858;48.716;9.648;2022-12-22T04:52:06;1.80;;;0.50;;
3683;SDS011;1858;48.716;9.648;2022-12-22T04:54:34;1.40;;;0.50;;
3683;SDS011;1858;48.716;9.648;2022-12-22T04:57:03;1.10;;;0.43;;
3683;SDS011;1858;48.716;9.648;2022-12-22T04:59:31;1.17;;;0.43;;
3683;SDS011;1858;48.716;9.648;2022-12-22T05:02:00;2.03;;;0.73;;
3683;SDS011;1858;48.716;9.648;2022-12-22T05:04:28;1.20;;;0.50;;
3683;SDS011;1858;48.716;9.648;2022-12-22T05:06:56;2.90;;;0.50;;
3683;SDS011;1858;48.716;9.648;2022-12-22T05:09:25;1.27;;;0.53;;
3683;SDS011;1858;48.716;9.648;2022-12-22T05:11:53;1.47;;;0.70;;
3683;SDS011;1858;48.716;9.648;2022-12-22T05:14:21;2.90;;;0.60;;
3683;SDS011;1858;48.716;9.648;2022-12-22T05:16:50;1.20;;;0.40;;
3683;SDS011;1858;48.716;9.648;2022-12-22T05:19:18;1.40;;;0.40;;
3683;SDS011;1858;48.716;9.648;2022-12-22T05:21:47;1.20;;;0.50;;
3683;SDS011;1858;48.716;9.648;2022-12-22T05:24:15;3.83;;;0.60;;
3683;SDS011;1858;48.716;9.648;2022-12-22T05:26:43;1.03;;;0.40;;
3683;SDS011;1858;48.716;9.648;2022-12-22T05:29:12;1.33;;;0.60;;
3683;SDS011;1858;48.716;9.648;2022-12-22T05:31:40;2.10;;;0.60;;
3683;SDS011;1858;48.716;9.648;2022-12-22T05:34:08;1.20;;;0.43;;
3683;SDS011;1858;48.716;9.648;2022-12-22T05:36:37;1.57;;;0.50;;
3683;SDS011;1858;48.716;9.648;2022-12-22T05:39:05;1.03;;;0.40;;
3683;SDS011;1858;48.716;9.648;2022-12-22T05:41:34;1.70;;;0.60;;
3683;SDS011;1858;48.716;9.648;2022-12-22T05:44:02;2.30;;;0.40;;
3683;SDS011;1858;48.716;9.648;2022-12-22T05:46:31;3.70;;;0.70;;
3683;SDS011;1858;48.716;9.648;2022-12-22T05:49:00;1.93;;;0.40;;
3683;SDS011;1858;48.716;9.648;2022-12-22T05:51:28;1.10;;;0.40;;
3683;SDS011;1858;48.716;9.648;2022-12-22T05:53:57;1.10;;;0.40;;
3683;SDS011;1858;48.716;9.648;2022-12-22T05:56:25;1.10;;;0.30;;
3683;SDS011;1858;48.716;9.648;2022-12-22T05:58:54;1.40;;;0.60;;
3683;SDS011;1858;48.716;9.648;2022-12-22T06:01:22;1.50;;;0.77;;
3683;SDS011;1858;48.716;9.648;2022-12-22T06:03:51;1.20;;;0.40;;
3683;SDS011;1858;48.716;9.648;2022-12-22T06:06:19;1.30;;;0.50;;
3683;SDS011;1858;48.716;9.648;2022-12-22T06:08:48;4.73;;;0.93;;
3683;SDS011;1858;48.716;9.648;2022-12-22T06:11:16;1.40;;;0.50;;
3683;SDS011;1858;48.716;9.648;2022-12-22T06:13:45;1.37;;;0.50;;
3683;SDS011;1858;48.716;9.648;2022-12-22T06:16:14;1.67;;;0.60;;
3683;SDS011;1858;48.716;9.648;2022-12-22T06:18:42;1.13;;;0.50;;
3683;SDS011;1858;48.716;9.648;2022-12-22T06:21:11;1.37;;;0.50;;
3683;SDS011;1858;48.716;9.648;2022-12-22T06:23:39;2.63;;;0.50;;
3683;SDS011;1858;48.716;9.648;2022-12-22T06:26:08;1.20;;;0.50;;
3683;SDS011;1858;48.716;9.648;2022-12-22T06:28:36;2.90;;;0.67;;
3683;SDS011;1858;48.716;9.648;2022-12-22T06:31:04;1.30;;;0.40;;
3683;SDS011;1858;48.716;9.648;2022-12-22T06:33:33;1.10;;;0.40;;
3683;SDS011;1858;48.716;9.648;2022-12-22T06:36:05;1.40;;;0.50;;
3683;SDS011;1858;48.716;9.648;2022-12-22T06:38:34;1.90;;;0.50;;
3683;SDS011;1858;48.716;9.648;2022-12-22T06:41:02;1.10;;;0.50;;
3683;SDS011;1858;48.716;9.648;2022-12-22T06:43:31;2.23;;;0.67;;
3683;SDS011;1858;48.716;9.648;2022-12-22T06:45:59;1.43;;;0.40;;
3683;SDS011;1858;48.716;9.648;2022-12-22T06:48:28;1.33;;;0.50;;
3683;SDS011;1858;48.716;9.648;2022-12-22T06:50:57;1.17;;;0.40;;
3683;SDS011;1858;48.716;9.648;2022-12-22T06:53:26;2.60;;;0.40;;
3683;SDS011;1858;48.716;9.648;2022-12-22T06:55:55;1.10;;;0.40;;
3683;SDS011;1858;48.716;9.648;2022-12-22T06:58:23;1.40;;;0.87;;
3683;SDS011;1858;48.716;9.648;2022-12-22T07:00:54;8.90;;;0.90;;
3683;SDS011;1858;48.716;9.648;2022-12-22T07:03:22;1.20;;;0.40;;
3683;SDS011;1858;48.716;9.648;2022-12-22T07:05:51;2.93;;;0.50;;
3683;SDS011;1858;48.716;9.648;2022-12-22T07:08:20;4.23;;;0.50;;
3683;SDS011;1858;48.716;9.648;2022-12-22T07:10:49;6.43;;;0.60;;
3683;SDS011;1858;48.716;9.648;2022-12-22T07:13:28;3.00;;;2.10;;
3683;SDS011;1858;48.716;9.648;2022-12-22T07:16:00;1.27;;;0.50;;
3683;SDS011;1858;48.716;9.648;2022-12-22T07:18:30;1.90;;;0.47;;
3683;SDS011;1858;48.716;9.648;2022-12-22T07:21:05;3.77;;;0.70;;
3683;SDS011;1858;48.716;9.648;2022-12-22T07:23:34;1.40;;;0.50;;
3683;SDS011;1858;48.716;9.648;2022-12-22T07:26:06;1.80;;;0.43;;
3683;SDS011;1858;48.716;9.648;2022-12-22T07:28:36;2.10;;;0.50;;
3683;SDS011;1858;48.716;9.648;2022-12-22T07:31:09;2.50;;;0.50;;
3683;SDS011;1858;48.716;9.648;2022-12-22T07:33:38;1.50;;;0.40;;
3683;SDS011;1858;48.716;9.648;2022-12-22T07:36:12;2.17;;;0.60;;
3683;SDS011;1858;48.716;9.648;2022-12-22T07:38:44;2.03;;;0.50;;
3683;SDS011;1858;48.716;9.648;2022-12-22T07:41:15;1.67;;;0.43;;
3683;SDS011;1858;48.716;9.648;2022-12-22T07:44:02;1.10;;;0.40;;
3683;SDS011;1858;48.716;9.648;2022-12-22T07:46:32;1.50;;;0.70;;
3683;SDS011;1858;48.716;9.648;2022-12-22T07:49:22;1.00;;;0.33;;
3683;SDS011;1858;48.716;9.648;2022-12-22T07:52:08;2.50;;;0.70;;
3683;SDS011;1858;48.716;9.648;2022-12-22T07:54:37;7.43;;;0.60;;
3683;SDS011;1858;48.716;9.648;2022-12-22T07:57:07;7.40;;;0.73;;
3683;SDS011;1858;48.716;9.648;2022-12-22T07:59:36;5.33;;;0.60;;
3683;SDS011;1858;48.716;9.648;2022-12-22T08:02:07;1.50;;;0.70;;
3683;SDS011;1858;48.716;9.648;2022-12-22T08:04:38;1.73;;;0.40;;
3683;SDS011;1858;48.716;9.648;2022-12-22T08:07:07;1.20;;;0.50;;
3683;SDS011;1858;48.716;9.648;2022-12-22T08:09:36;5.70;;;0.70;;
3683;SDS011;1858;48.716;9.648;2022-12-22T08:12:04;5.40;;;0.53;;
3683;SDS011;1858;48.716;9.648;2022-12-22T08:14:34;3.17;;;1.03;;
3683;SDS011;1858;48.716;9.648;2022-12-22T08:17:03;2.70;;;0.80;;
3683;SDS011;1858;48.716;9.648;2022-12-22T08:19:32;6.53;;;0.50;;
3683;SDS011;1858;48.716;9.648;2022-12-22T08:22:01;7.63;;;0.70;;
3683;SDS011;1858;48.716;9.648;2022-12-22T08:24:30;1.93;;;0.50;;
3683;SDS011;1858;48.716;9.648;2022-12-22T08:27:00;3.13;;;0.60;;
3683;SDS011;1858;48.716;9.648;2022-12-22T08:29:35;1.10;;;0.40;;
3683;SDS011;1858;48.716;9.648;2022-12-22T08:32:09;9.23;;;0.50;;
3683;SDS011;1858;48.716;9.648;2022-12-22T08:34:39;3.63;;;0.73;;
3683;SDS011;1858;48.716;9.648;2022-12-22T08:37:09;1.17;;;0.40;;
3683;SDS011;1858;48.716;9.648;2022-12-22T08:39:40;2.20;;;0.70;;
3683;SDS011;1858;48.716;9.648;2022-12-22T08:42:11;4.47;;;1.80;;
3683;SDS011;1858;48.716;9.648;2022-12-22T08:44:42;1.77;;;0.50;;
3683;SDS011;1858;48.716;9.648;2022-12-22T08:47:13;2.53;;;1.27;;
3683;SDS011;1858;48.716;9.648;2022-12-22T08:49:41;5.53;;;0.60;;
3683;SDS011;1858;48.716;9.648;2022-12-22T08:52:10;1.30;;;0.50;;
3683;SDS011;1858;48.716;9.648;2022-12-22T08:54:39;5.37;;;1.30;;
3683;SDS011;1858;48.716;9.648;2022-12-22T08:57:09;4.13;;;1.03;;
3683;SDS011;1858;48.716;9.648;2022-12-22T08:59:38;1.87;;;0.70;;
3683;SDS011;1858;48.716;9.648;2022-12-22T09:02:08;2.40;;;0.80;;
3683;SDS011;1858;48.716;9.648;2022-12-22T09:04:37;3.17;;;1.00;;
3683;SDS011;1858;48.716;9.648;2022-12-22T09:07:06;3.90;;;0.70;;
3683;SDS011;1858;48.716;9.648;2022-12-22T09:09:36;1.87;;;0.50;;
3683;SDS011;1858;48.716;9.648;2022-12-22T09:12:05;1.90;;;0.60;;
3683;SDS011;1858;48.716;9.648;2022-12-22T09:14:35;1.10;;;0.30;;
3683;SDS011;1858;48.716;9.648;2022-12-22T09:17:04;3.47;;;2.50;;
3683;SDS011;1858;48.716;9.648;2022-12-22T09:19:33;3.73;;;1.43;;
3683;SDS011;1858;48.716;9.648;2022-12-22T09:22:02;4.47;;;0.77;;
3683;SDS011;1858;48.716;9.648;2022-12-22T09:24:35;2.63;;;0.50;;
3683;SDS011;1858;48.716;9.648;2022-12-22T09:27:05;3.10;;;1.90;;
3683;SDS011;1858;48.716;9.648;2022-12-22T09:29:35;1.10;;;0.30;;
3683;SDS011;1858;48.716;9.648;2022-12-22T09:32:05;1.10;;;0.30;;
3683;SDS011;1858;48.716;9.648;2022-12-22T09:34:33;1.20;;;0.30;;
3683;SDS011;1858;48.716;9.648;2022-12-22T09:37:03;1.10;;;0.30;;
3683;SDS011;1858;48.716;9.648;2022-12-22T09:39:32;1.20;;;0.30;;
3683;SDS011;1858;48.716;9.648;2022-12-22T09:42:00;1.93;;;0.40;;
3683;SDS011;1858;48.716;9.648;2022-12-22T09:44:36;1.40;;;0.43;;
3683;SDS011;1858;48.716;9.648;2022-12-22T09:47:41;2.10;;;0.47;;
3683;SDS011;1858;48.716;9.648;2022-12-22T09:50:03;1.30;;;0.40;;
3683;SDS011;1858;48.716;9.648;2022-12-22T09:55:25;1.97;;;0.50;;
3683;SDS011;1858;48.716;9.648;2022-12-22T09:57:53;1.20;;;0.40;;
3683;SDS011;1858;48.716;9.648;2022-12-22T10:00:22;12.60;;;1.90;;
3683;SDS011;1858;48.716;9.648;2022-12-22T10:05:44;1.40;;;0.50;;
3683;SDS011;1858;48.716;9.648;2022-12-22T10:08:20;3.47;;;0.40;;
3683;SDS011;1858;48.716;9.648;2022-12-22T10:10:53;3.27;;;0.73;;
3683;SDS011;1858;48.716;9.648;2022-12-22T10:13:23;4.30;;;0.87;;
3683;SDS011;1858;48.716;9.648;2022-12-22T10:15:52;3.63;;;0.80;;
3683;SDS011;1858;48.716;9.648;2022-12-22T10:18:23;2.00;;;0.43;;
3683;SDS011;1858;48.716;9.648;2022-12-22T10:21:14;1.47;;;0.50;;
3683;SDS011;1858;48.716;9.648;2022-12-22T10:23:50;1.10;;;0.40;;
3683;SDS011;1858;48.716;9.648;2022-12-22T10:26:26;3.63;;;0.43;;
3683;SDS011;1858;48.716;9.648;2022-12-22T10:31:34;1.80;;;0.50;;
3683;SDS011;1858;48.716;9.648;2022-12-22T10:34:12;1.60;;;1.00;;
3683;SDS011;1858;48.716;9.648;2022-12-22T10:36:46;1.17;;;0.40;;
3683;SDS011;1858;48.716;9.648;2022-12-22T10:39:23;3.43;;;0.70;;
3683;SDS011;1858;48.716;9.648;2022-12-22T10:41:55;2.20;;;0.50;;
3683;SDS011;1858;48.716;9.648;2022-12-22T10:44:29;2.50;;;0.57;;
3683;SDS011;1858;48.716;9.648;2022-12-22T10:49:45;1.20;;;0.50;;
3683;SDS011;1858;48.716;9.648;2022-12-22T10:52:21;1.20;;;0.47;;
3683;SDS011;1858;48.716;9.648;2022-12-22T10:54:52;5.00;;;0.60;;
3683;SDS011;1858;48.716;9.648;2022-12-22T10:57:42;2.33;;;0.60;;
3683;SDS011;1858;48.716;9.648;2022-12-22T11:00:27;2.67;;;1.13;;
3683;SDS011;1858;48.716;9.648;2022-12-22T11:02:58;2.73;;;0.60;;
3683;SDS011;1858;48.716;9.648;2022-12-22T11:05:28;1.53;;;0.60;;
3683;SDS011;1858;48.716;9.648;2022-12-22T11:08:00;1.30;;;0.47;;
3683;SDS011;1858;48.716;9.648;2022-12-22T11:10:42;2.33;;;0.40;;
3683;SDS011;1858;48.716;9.648;2022-12-22T11:15:50;1.47;;;0.57;;
3683;SDS011;1858;48.716;9.648;2022-12-22T11:21:18;3.13;;;1.03;;
3683;SDS011;1858;48.716;9.648;2022-12-22T11:32:40;8.60;;;0.97;;
3683;SDS011;1858;48.716;9.648;2022-12-22T11:41:19;1.40;;;0.40;;
3683;SDS011;1858;48.716;9.648;2022-12-22T11:43:56;3.30;;;0.50;;
3683;SDS011;1858;48.716;9.648;2022-12-22T11:51:59;4.77;;;0.60;;
3683;SDS011;1858;48.716;9.648;2022-12-22T11:57:17;1.63;;;0.50;;
3683;SDS011;1858;48.716;9.648;2022-12-22T11:59:58;3.20;;;0.53;;
3683;SDS011;1858;48.716;9.648;2022-12-22T12:02:49;1.73;;;0.70;;
3683;SDS011;1858;48.716;9.648;2022-12-22T12:14:27;1.83;;;0.70;;
3683;SDS011;1858;48.716;9.648;2022-12-22T12:31:25;5.83;;;0.50;;
3683;SDS011;1858;48.716;9.648;2022-12-22T12:33:55;1.57;;;0.57;;
3683;SDS011;1858;48.716;9.648;2022-12-22T12:39:23;1.73;;;0.50;;
3683;SDS011;1858;48.716;9.648;2022-12-22T12:44:39;1.83;;;0.50;;
3683;SDS011;1858;48.716;9.648;2022-12-22T12:47:24;1.83;;;0.73;;
3683;SDS011;1858;48.716;9.648;2022-12-22T12:49:58;1.73;;;0.57;;
3683;SDS011;1858;48.716;9.648;2022-12-22T12:58:00;2.50;;;0.40;;
3683;SDS011;1858;48.716;9.648;2022-12-22T13:03:02;2.17;;;0.40;;
3683;SDS011;1858;48.716;9.648;2022-12-22T13:05:33;2.30;;;0.50;;
3683;SDS011;1858;48.716;9.648;2022-12-22T13:08:28;1.20;;;0.40;;
3683;SDS011;1858;48.716;9.648;2022-12-22T13:18:43;2.53;;;0.50;;
3683;SDS011;1858;48.716;9.648;2022-12-22T13:21:15;1.40;;;0.40;;
3683;SDS011;1858;48.716;9.648;2022-12-22T13:26:42;3.60;;;1.57;;
3683;SDS011;1858;48.716;9.648;2022-12-22T13:29:22;3.00;;;0.50;;
3683;SDS011;1858;48.716;9.648;2022-12-22T13:37:48;3.47;;;0.70;;
3683;SDS011;1858;48.716;9.648;2022-12-22T13:40:26;8.63;;;1.13;;
3683;SDS011;1858;48.716;9.648;2022-12-22T13:43:00;8.83;;;0.60;;
3683;SDS011;1858;48.716;9.648;2022-12-22T13:45:32;1.73;;;0.60;;
3683;SDS011;1858;48.716;9.648;2022-12-22T13:48:20;1.53;;;0.47;;
3683;SDS011;1858;48.716;9.648;2022-12-22T13:51:33;3.13;;;0.83;;
3683;SDS011;1858;48.716;9.648;2022-12-22T13:53:40;2.27;;;0.53;;
3683;SDS011;1858;48.716;9.648;2022-12-22T13:56:13;7.27;;;1.13;;
3683;SDS011;1858;48.716;9.648;2022-12-22T13:58:43;1.30;;;0.50;;
3683;SDS011;1858;48.716;9.648;2022-12-22T14:01:18;6.40;;;1.47;;
3683;SDS011;1858;48.716;9.648;2022-12-22T14:03:52;1.80;;;0.63;;
3683;SDS011;1858;48.716;9.648;2022-12-22T14:06:27;2.10;;;0.80;;
3683;SDS011;1858;48.716;9.648;2022-12-22T14:11:53;1.37;;;0.40;;
3683;SDS011;1858;48.716;9.648;2022-12-22T14:14:25;1.40;;;0.50;;
3683;SDS011;1858;48.716;9.648;2022-12-22T14:16:56;1.40;;;0.40;;
3683;SDS011;1858;48.716;9.648;2022-12-22T14:19:31;3.07;;;0.70;;
3683;SDS011;1858;48.716;9.648;2022-12-22T14:22:03;8.80;;;0.93;;
3683;SDS011;1858;48.716;9.648;2022-12-22T14:24:57;2.10;;;0.50;;
3683;SDS011;1858;48.716;9.648;2022-12-22T14:27:17;1.37;;;0.50;;
3683;SDS011;1858;48.716;9.648;2022-12-22T14:29:47;2.20;;;0.73;;
3683;SDS011;1858;48.716;9.648;2022-12-22T14:32:36;1.97;;;0.60;;
3683;SDS011;1858;48.716;9.648;2022-12-22T14:35:13;1.30;;;0.50;;
3683;SDS011;1858;48.716;9.648;2022-12-22T14:37:52;5.17;;;0.90;;
3683;SDS011;1858;48.716;9.648;2022-12-22T14:40:39;2.67;;;0.40;;
3683;SDS011;1858;48.716;9.648;2022-12-22T14:45:48;3.00;;;0.60;;
3683;SDS011;1858;48.716;9.648;2022-12-22T14:48:23;3.00;;;0.63;;
3683;SDS011;1858;48.716;9.648;2022-12-22T14:50:53;5.87;;;1.10;;
3683;SDS011;1858;48.716;9.648;2022-12-22T14:53:24;2.33;;;0.40;;
3683;SDS011;1858;48.716;9.648;2022-12-22T14:55:54;2.33;;;0.70;;
3683;SDS011;1858;48.716;9.648;2022-12-22T14:58:28;1.73;;;0.50;;
3683;SDS011;1858;48.716;9.648;2022-12-22T15:01:18;1.93;;;0.60;;
3683;SDS011;1858;48.716;9.648;2022-12-22T15:03:58;1.50;;;0.50;;
3683;SDS011;1858;48.716;9.648;2022-12-22T15:06:39;3.57;;;1.20;;
3683;SDS011;1858;48.716;9.648;2022-12-22T15:12:05;1.60;;;0.60;;
3683;SDS011;1858;48.716;9.648;2022-12-22T15:14:35;2.93;;;0.70;;
3683;SDS011;1858;48.716;9.648;2022-12-22T15:17:15;4.70;;;0.80;;
3683;SDS011;1858;48.716;9.648;2022-12-22T15:19:38;1.90;;;0.70;;
3683;SDS011;1858;48.716;9.648;2022-12-22T15:22:08;2.47;;;1.93;;
3683;SDS011;1858;48.716;9.648;2022-12-22T15:24:38;4.07;;;1.07;;
3683;SDS011;1858;48.716;9.648;2022-12-22T15:27:07;6.83;;;0.70;;
3683;SDS011;1858;48.716;9.648;2022-12-22T15:29:36;2.70;;;1.10;;
3683;SDS011;1858;48.716;9.648;2022-12-22T15:32:08;5.47;;;0.90;;
3683;SDS011;1858;48.716;9.648;2022-12-22T15:34:38;4.37;;;1.10;;
3683;SDS011;1858;48.716;9.648;2022-12-22T15:37:10;1.40;;;0.50;;
3683;SDS011;1858;48.716;9.648;2022-12-22T15:39:39;3.37;;;0.80;;
3683;SDS011;1858;48.716;9.648;2022-12-22T15:42:08;3.00;;;0.50;;
3683;SDS011;1858;48.716;9.648;2022-12-22T15:44:37;3.33;;;1.37;;
3683;SDS011;1858;48.716;9.648;2022-12-22T15:47:07;3.27;;;0.83;;
3683;SDS011;1858;48.716;9.648;2022-12-22T15:49:37;3.27;;;1.10;;
3683;SDS011;1858;48.716;9.648;2022-12-22T15:52:06;1.57;;;0.50;;
3683;SDS011;1858;48.716;9.648;2022-12-22T15:54:38;5.33;;;0.70;;
3683;SDS011;1858;48.716;9.648;2022-12-22T15:57:15;1.50;;;0.60;;
3683;SDS011;1858;48.716;9.648;2022-12-22T15:59:41;2.47;;;0.50;;
3683;SDS011;1858;48.716;9.648;2022-12-22T16:02:10;1.40;;;0.60;;
3683;SDS011;1858;48.716;9.648;2022-12-22T16:04:40;4.07;;;1.03;;
3683;SDS011;1858;48.716;9.648;2022-12-22T16:07:10;9.83;;;0.83;;
3683;SDS011;1858;48.716;9.648;2022-12-22T16:09:39;2.77;;;1.27;;
3683;SDS011;1858;48.716;9.648;2022-12-22T16:12:14;4.37;;;1.03;;
3683;SDS011;1858;48.716;9.648;2022-12-22T16:14:45;2.10;;;0.57;;
3683;SDS011;1858;48.716;9.648;2022-12-22T16:17:19;3.27;;;1.07;;
3683;SDS011;1858;48.716;9.648;2022-12-22T16:19:49;2.03;;;0.40;;
3683;SDS011;1858;48.716;9.648;2022-12-22T16:22:19;1.77;;;0.60;;
3683;SDS011;1858;48.716;9.648;2022-12-22T16:24:50;4.70;;;1.30;;
3683;SDS011;1858;48.716;9.648;2022-12-22T16:27:21;9.50;;;3.80;;
3683;SDS011;1858;48.716;9.648;2022-12-22T16:29:50;5.57;;;1.23;;
3683;SDS011;1858;48.716;9.648;2022-12-22T16:32:25;9.33;;;2.00;;
3683;SDS011;1858;48.716;9.648;2022-12-22T16:34:53;4.67;;;1.53;;
3683;SDS011;1858;48.716;9.648;2022-12-22T16:37:27;6.10;;;2.50;;
3683;SDS011;1858;48.716;9.648;2022-12-22T16:39:54;4.17;;;1.40;;
3683;SDS011;1858;48.716;9.648;2022-12-22T16:42:28;4.27;;;2.13;;
3683;SDS011;1858;48.716;9.648;2022-12-22T16:44:57;3.73;;;1.80;;
3683;SDS011;1858;48.716;9.648;2022-12-22T16:47:34;5.60;;;2.03;;
3683;SDS011;1858;48.716;9.648;2022-12-22T16:50:08;2.20;;;0.80;;
3683;SDS011;1858;48.716;9.648;2022-12-22T16:52:37;5.00;;;2.13;;
3683;SDS011;1858;48.716;9.648;2022-12-22T16:55:14;7.30;;;1.43;;
3683;SDS011;1858;48.716;9.648;2022-12-22T16:57:45;6.23;;;0.97;;
3683;SDS011;1858;48.716;9.648;2022-12-22T17:00:17;1.73;;;0.70;;
3683;SDS011;1858;48.716;9.648;2022-12-22T17:02:54;7.63;;;1.13;;
3683;SDS011;1858;48.716;9.648;2022-12-22T17:05:22;3.80;;;0.97;;
3683;SDS011;1858;48.716;9.648;2022-12-22T17:07:50;4.60;;;2.10;;
3683;SDS011;1858;48.716;9.648;2022-12-22T17:10:19;2.37;;;1.17;;
3683;SDS011;1858;48.716;9.648;2022-12-22T17:12:49;4.20;;;0.93;;
3683;SDS011;1858;48.716;9.648;2022-12-22T17:15:20;2.87;;;1.30;;
3683;SDS011;1858;48.716;9.648;2022-12-22T17:17:50;1.60;;;0.87;;
3683;SDS011;1858;48.716;9.648;2022-12-22T17:20:21;5.10;;;1.00;;
3683;SDS011;1858;48.716;9.648;2022-12-22T17:22:51;5.63;;;1.27;;
3683;SDS011;1858;48.716;9.648;2022-12-22T17:25:44;2.00;;;1.40;;
3683;SDS011;1858;48.716;9.648;2022-12-22T17:28:12;3.90;;;1.40;;
3683;SDS011;1858;48.716;9.648;2022-12-22T17:30:41;6.30;;;3.10;;
3683;SDS011;1858;48.716;9.648;2022-12-22T17:33:14;12.13;;;3.33;;
3683;SDS011;1858;48.716;9.648;2022-12-22T17:35:43;10.93;;;2.93;;
3683;SDS011;1858;48.716;9.648;2022-12-22T17:38:21;2.10;;;0.90;;
3683;SDS011;1858;48.716;9.648;2022-12-22T17:40:47;4.00;;;1.33;;
3683;SDS011;1858;48.716;9.648;2022-12-22T17:43:17;4.97;;;1.40;;
3683;SDS011;1858;48.716;9.648;2022-12-22T17:45:47;2.97;;;1.50;;
3683;SDS011;1858;48.716;9.648;2022-12-22T17:48:15;4.53;;;2.93;;
3683;SDS011;1858;48.716;9.648;2022-12-22T17:50:44;4.30;;;1.60;;
3683;SDS011;1858;48.716;9.648;2022-12-22T17:53:17;9.40;;;2.93;;
3683;SDS011;1858;48.716;9.648;2022-12-22T17:55:46;4.27;;;1.93;;
3683;SDS011;1858;48.716;9.648;2022-12-22T17:58:17;2.80;;;1.53;;
3683;SDS011;1858;48.716;9.648;2022-12-22T18:00:45;11.03;;;2.97;;
3683;SDS011;1858;48.716;9.648;2022-12-22T18:03:14;8.30;;;2.53;;